Time;durP1;ratioP1;P1;durP2;ratioP2;P2;SDS_P1;SDS_P2;PMS_P1;PMS_P2;Temp;Humidity;BMP_temperature;BMP_pressure;BME280_temperature;BME280_humidity;BME280_pressure;Samples;Min_cycle;Max_cycle;Signal;HPM_P1;HPM_P2
2021/05/27 00:00:51;;;;;;;2.20;1.70;;;;;;;;;;5057176;28;20702;-78
2021/05/27 00:03:17;;;;;;;2.38;1.52;;;;;;;;;;5057093;28;20459;-78
2021/05/27 00:05:43;;;;;;;3.17;1.77;;;;;;;;;;5073003;28;20182;-78
2021/05/27 00:08:09;;;;;;;4.33;1.67;;;;;;;;;;5065350;28;20169;-78
2021/05/27 00:10:36;;;;;;;5.00;2.17;;;;;;;;;;5065894;28;20451;-78
2021/05/27 00:13:02;;;;;;;3.00;1.60;;;;;;;;;;5061522;28;20658;-78
2021/05/27 00:15:29;;;;;;;1.92;1.58;;;;;;;;;;5066312;28;20184;-78
2021/05/27 00:17:55;;;;;;;1.48;1.38;;;;;;;;;;5066504;28;20189;-78
2021/05/27 00:20:21;;;;;;;2.10;1.90;;;;;;;;;;5066414;28;20201;-78
2021/05/27 00:22:47;;;;;;;4.25;3.47;;;;;;;;;;5066928;28;20173;-78
2021/05/27 00:25:14;;;;;;;2.85;1.85;;;;;;;;;;5075571;28;20189;-78
2021/05/27 00:27:44;;;;;;;1.50;1.40;;;;;;;;;;5060354;28;20174;-78
2021/05/27 00:30:10;;;;;;;1.42;1.30;;;;;;;;;;5064493;28;20189;-78
2021/05/27 00:32:36;;;;;;;2.45;2.00;;;;;;;;;;5062689;28;20185;-78
2021/05/27 00:35:03;;;;;;;1.83;1.57;;;;;;;;;;5060811;28;20188;-78
2021/05/27 00:37:29;;;;;;;2.35;1.88;;;;;;;;;;5065807;28;20408;-78
2021/05/27 00:39:55;;;;;;;3.63;1.50;;;;;;;;;;5060081;28;20207;-78
2021/05/27 00:42:21;;;;;;;3.30;1.57;;;;;;;;;;5062582;28;20188;-78
2021/05/27 00:44:57;;;;;;;1.60;1.50;;;;;;;;;;5065829;28;20837;-78
2021/05/27 00:47:23;;;;;;;2.35;2.13;;;;;;;;;;5058910;28;20435;-78
2021/05/27 00:49:49;;;;;;;2.90;1.80;;;;;;;;;;5066523;28;20218;-77
2021/05/27 00:52:15;;;;;;;1.98;1.77;;;;;;;;;;5059903;28;20427;-78
2021/05/27 00:54:41;;;;;;;3.47;1.73;;;;;;;;;;5064998;28;20659;-77
2021/05/27 00:57:08;;;;;;;2.63;2.03;;;;;;;;;;5060570;28;20200;-78
2021/05/27 00:59:34;;;;;;;2.33;2.13;;;;;;;;;;5064985;28;20428;-77
2021/05/27 01:02:00;;;;;;;5.05;1.60;;;;;;;;;;5073383;28;20222;-78
2021/05/27 01:04:26;;;;;;;2.58;1.67;;;;;;;;;;5064727;28;20177;-77
2021/05/27 01:06:52;;;;;;;3.07;2.13;;;;;;;;;;5065226;28;20200;-77
2021/05/27 01:09:18;;;;;;;3.25;1.95;;;;;;;;;;5079949;28;20447;-77
2021/05/27 01:11:44;;;;;;;2.20;2.00;;;;;;;;;;5060794;28;20233;-77
2021/05/27 01:14:11;;;;;;;2.77;1.83;;;;;;;;;;5065001;28;20412;-77
2021/05/27 01:16:37;;;;;;;2.58;1.98;;;;;;;;;;5065998;28;20420;-77
2021/05/27 01:19:03;;;;;;;3.85;2.30;;;;;;;;;;5059227;28;20196;-77
2021/05/27 01:21:31;;;;;;;2.70;2.50;;;;;;;;;;5060644;28;20210;-77
2021/05/27 01:23:57;;;;;;;5.18;2.15;;;;;;;;;;5063933;28;20184;-77
2021/05/27 01:26:23;;;;;;;6.97;1.98;;;;;;;;;;5074707;28;20185;-77
2021/05/27 01:28:49;;;;;;;3.00;2.22;;;;;;;;;;5061584;28;20199;-77
2021/05/27 01:31:15;;;;;;;2.65;2.08;;;;;;;;;;5074948;28;20299;-77
2021/05/27 01:33:42;;;;;;;3.05;2.05;;;;;;;;;;5058268;28;20185;-77
2021/05/27 01:36:09;;;;;;;7.80;1.92;;;;;;;;;;5058110;28;20191;-77
2021/05/27 01:38:35;;;;;;;1.67;1.58;;;;;;;;;;5064650;28;20195;-78
2021/05/27 01:41:03;;;;;;;3.15;1.80;;;;;;;;;;5074370;28;20264;-77
2021/05/27 01:43:29;;;;;;;3.58;2.50;;;;;;;;;;5059721;28;20161;-77
2021/05/27 01:45:55;;;;;;;2.00;1.80;;;;;;;;;;5060406;28;20185;-78
2021/05/27 01:48:21;;;;;;;3.17;2.47;;;;;;;;;;5065003;28;20181;-77
2021/05/27 01:50:48;;;;;;;4.28;2.78;;;;;;;;;;5064529;28;20590;-77
2021/05/27 01:53:14;;;;;;;3.10;2.22;;;;;;;;;;5074010;28;20193;-77
2021/05/27 01:55:47;;;;;;;4.35;2.35;;;;;;;;;;5059734;28;20359;-77
2021/05/27 01:58:14;;;;;;;3.30;2.33;;;;;;;;;;5060421;28;20192;-77
2021/05/27 02:00:40;;;;;;;4.85;2.55;;;;;;;;;;5059378;28;20241;-77
2021/05/27 02:03:06;;;;;;;4.70;1.98;;;;;;;;;;5062616;28;20200;-77
2021/05/27 02:05:33;;;;;;;2.45;2.25;;;;;;;;;;5075564;28;20204;-77
2021/05/27 02:07:59;;;;;;;3.25;2.25;;;;;;;;;;5055716;28;20179;-77
2021/05/27 02:10:25;;;;;;;3.40;2.35;;;;;;;;;;5061691;28;20225;-77
2021/05/27 02:12:51;;;;;;;4.90;2.20;;;;;;;;;;5063837;28;20670;-77
2021/05/27 02:15:17;;;;;;;2.47;1.77;;;;;;;;;;5064121;28;20667;-77
2021/05/27 02:17:43;;;;;;;5.43;2.60;;;;;;;;;;5064534;28;20185;-77
2021/05/27 02:20:10;;;;;;;2.92;1.70;;;;;;;;;;5062677;28;20215;-77
2021/05/27 02:22:36;;;;;;;3.92;2.10;;;;;;;;;;5063232;28;20193;-76
2021/05/27 02:25:02;;;;;;;2.13;1.92;;;;;;;;;;5059292;28;20643;-76
2021/05/27 02:27:29;;;;;;;3.15;1.98;;;;;;;;;;5059888;28;20210;-76
2021/05/27 02:29:55;;;;;;;2.45;2.00;;;;;;;;;;5062667;28;20185;-76
2021/05/27 02:32:21;;;;;;;3.78;1.95;;;;;;;;;;5058128;28;20306;-77
2021/05/27 02:34:47;;;;;;;3.10;1.52;;;;;;;;;;5063313;28;20576;-76
2021/05/27 02:37:13;;;;;;;2.73;2.20;;;;;;;;;;5057864;28;20203;-76
2021/05/27 02:39:39;;;;;;;3.80;2.67;;;;;;;;;;5063369;28;20436;-76
2021/05/27 02:42:05;;;;;;;2.08;1.88;;;;;;;;;;5062312;28;20189;-76
2021/05/27 02:44:31;;;;;;;3.80;2.38;;;;;;;;;;5074163;28;20173;-76
2021/05/27 02:46:57;;;;;;;3.58;2.05;;;;;;;;;;5062350;28;20549;-77
2021/05/27 02:49:23;;;;;;;4.00;3.22;;;;;;;;;;5058975;28;20177;-77
2021/05/27 02:51:49;;;;;;;2.20;1.83;;;;;;;;;;5057620;28;20186;-77
2021/05/27 02:54:16;;;;;;;2.78;2.05;;;;;;;;;;5062800;28;20185;-76
2021/05/27 02:56:42;;;;;;;2.28;2.17;;;;;;;;;;5078225;28;20190;-77
2021/05/27 02:59:08;;;;;;;6.43;2.65;;;;;;;;;;5057858;28;20549;-77
2021/05/27 03:01:34;;;;;;;3.90;1.80;;;;;;;;;;5058950;28;20189;-77
2021/05/27 03:04:01;;;;;;;2.10;1.90;;;;;;;;;;5062876;28;20185;-76
2021/05/27 03:06:27;;;;;;;2.50;2.20;;;;;;;;;;5058671;28;20224;-77
2021/05/27 03:08:53;;;;;;;3.15;1.98;;;;;;;;;;5054643;28;20213;-77
2021/05/27 03:11:19;;;;;;;4.22;2.22;;;;;;;;;;5061460;28;20236;-77
2021/05/27 03:13:45;;;;;;;2.25;1.90;;;;;;;;;;5054189;28;20307;-77
2021/05/27 03:16:11;;;;;;;2.08;1.98;;;;;;;;;;5071357;28;20185;-76
2021/05/27 03:18:37;;;;;;;11.65;2.28;;;;;;;;;;5056564;28;20185;-76
2021/05/27 03:21:04;;;;;;;1.88;1.73;;;;;;;;;;5062051;28;20200;-76
2021/05/27 03:23:30;;;;;;;2.40;2.17;;;;;;;;;;5078009;28;20256;-76
2021/05/27 03:25:56;;;;;;;3.75;1.80;;;;;;;;;;5057844;28;20203;-77
2021/05/27 03:28:23;;;;;;;4.63;1.73;;;;;;;;;;5058385;28;20218;-77
2021/05/27 03:30:49;;;;;;;2.58;1.85;;;;;;;;;;5062705;28;20177;-77
2021/05/27 03:33:15;;;;;;;2.83;2.05;;;;;;;;;;5056172;28;20235;-77
2021/05/27 03:35:41;;;;;;;2.60;1.98;;;;;;;;;;5059741;28;20193;-77
2021/05/27 03:38:07;;;;;;;3.58;2.15;;;;;;;;;;5071210;28;20208;-76
2021/05/27 03:40:33;;;;;;;2.45;2.25;;;;;;;;;;5073324;28;20205;-76
2021/05/27 03:42:59;;;;;;;4.10;2.50;;;;;;;;;;5057354;28;20185;-76
2021/05/27 03:45:29;;;;;;;3.40;3.20;;;;;;;;;;5062738;28;20178;-76
2021/05/27 03:47:55;;;;;;;2.30;2.05;;;;;;;;;;5075750;28;20196;-77
2021/05/27 03:50:23;;;;;;;4.25;2.88;;;;;;;;;;5082004;28;20189;-77
2021/05/27 03:52:49;;;;;;;2.40;2.20;;;;;;;;;;5063546;28;20206;-77
2021/05/27 03:55:16;;;;;;;3.90;2.55;;;;;;;;;;5060744;28;20184;-77
2021/05/27 03:57:44;;;;;;;3.45;2.25;;;;;;;;;;5062728;28;20188;-77
2021/05/27 04:02:58;;;;;;;2.67;2.22;;;;;;;;;;5066589;28;20234;-77
2021/05/27 04:08:09;;;;;;;4.35;2.38;;;;;;;;;;5057883;28;20184;-77
2021/05/27 04:10:35;;;;;;;6.32;3.25;;;;;;;;;;5067020;28;20220;-77
2021/05/27 04:13:02;;;;;;;2.92;2.58;;;;;;;;;;5066279;28;20189;-77
2021/05/27 04:15:29;;;;;;;2.95;2.40;;;;;;;;;;5081349;28;20543;-77
2021/05/27 04:17:55;;;;;;;3.83;2.22;;;;;;;;;;5066108;28;20185;-77
2021/05/27 04:20:25;;;;;;;2.72;2.17;;;;;;;;;;5066894;28;20201;-76
2021/05/27 04:22:52;;;;;;;4.55;2.63;;;;;;;;;;5063557;28;20705;-77
2021/05/27 04:25:18;;;;;;;3.45;2.05;;;;;;;;;;5065379;28;20181;-77
2021/05/27 04:27:45;;;;;;;3.17;2.20;;;;;;;;;;5060955;28;20184;-77
2021/05/27 04:30:16;;;;;;;3.40;2.40;;;;;;;;;;5060975;28;20200;-77
2021/05/27 04:32:55;;;;;;;2.33;2.13;;;;;;;;;;5076489;28;20267;-76
2021/05/27 04:35:26;;;;;;;2.63;1.95;;;;;;;;;;5060582;28;20204;-77
2021/05/27 04:37:53;;;;;;;1.90;1.80;;;;;;;;;;5061785;28;20177;-77
2021/05/27 04:40:20;;;;;;;2.20;1.92;;;;;;;;;;5063314;28;20221;-76
2021/05/27 04:42:46;;;;;;;3.17;2.35;;;;;;;;;;5066135;28;20213;-76
2021/05/27 04:45:12;;;;;;;3.60;2.20;;;;;;;;;;5063412;28;20192;-76
2021/05/27 04:47:38;;;;;;;4.95;2.33;;;;;;;;;;5074893;28;20174;-76
2021/05/27 04:50:05;;;;;;;5.82;2.40;;;;;;;;;;5066071;28;20177;-76
2021/05/27 04:52:31;;;;;;;2.50;2.30;;;;;;;;;;5066619;28;20203;-76
2021/05/27 04:54:57;;;;;;;2.70;2.50;;;;;;;;;;5059770;28;20173;-76
2021/05/27 04:57:23;;;;;;;2.10;1.90;;;;;;;;;;5061306;28;20200;-77
2021/05/27 04:59:49;;;;;;;3.03;2.13;;;;;;;;;;5061748;28;20220;-76
2021/05/27 05:02:15;;;;;;;5.32;2.75;;;;;;;;;;5059889;28;20231;-76
2021/05/27 05:04:41;;;;;;;2.50;2.05;;;;;;;;;;5070594;28;20716;-76
2021/05/27 05:07:07;;;;;;;2.60;2.08;;;;;;;;;;5071779;28;20212;-76
2021/05/27 05:09:33;;;;;;;2.38;2.17;;;;;;;;;;5060013;28;20696;-76
2021/05/27 05:11:59;;;;;;;2.20;1.67;;;;;;;;;;5062441;28;20193;-76
2021/05/27 05:14:25;;;;;;;3.07;2.43;;;;;;;;;;5075168;28;20184;-76
2021/05/27 05:16:51;;;;;;;4.40;2.47;;;;;;;;;;5066075;28;20416;-76
2021/05/27 05:19:17;;;;;;;6.35;2.70;;;;;;;;;;5059901;28;20173;-77
2021/05/27 05:21:43;;;;;;;3.92;2.17;;;;;;;;;;5065150;28;20204;-77
2021/05/27 05:24:09;;;;;;;5.57;2.30;;;;;;;;;;5059283;28;20423;-77
2021/05/27 05:26:35;;;;;;;4.40;2.10;;;;;;;;;;5074030;28;20430;-77
2021/05/27 05:29:01;;;;;;;6.28;2.58;;;;;;;;;;5063934;28;20428;-77
2021/05/27 05:31:27;;;;;;;2.53;2.33;;;;;;;;;;5060012;28;20179;-76
2021/05/27 05:33:55;;;;;;;3.50;2.33;;;;;;;;;;5059509;28;20260;-76
2021/05/27 05:36:24;;;;;;;4.97;2.55;;;;;;;;;;5061275;28;20185;-76
2021/05/27 05:38:51;;;;;;;4.10;2.45;;;;;;;;;;5072893;28;20178;-76
2021/05/27 05:41:17;;;;;;;2.70;2.50;;;;;;;;;;5063851;28;20221;-76
2021/05/27 05:43:43;;;;;;;3.58;2.35;;;;;;;;;;5064814;28;20165;-76
2021/05/27 05:46:10;;;;;;;2.85;2.25;;;;;;;;;;5061511;28;20231;-76
2021/05/27 05:48:36;;;;;;;5.28;2.58;;;;;;;;;;5059123;28;20177;-76
2021/05/27 05:51:07;;;;;;;2.67;2.30;;;;;;;;;;5059507;28;20181;-76
2021/05/27 05:53:33;;;;;;;3.97;2.60;;;;;;;;;;5073457;28;20178;-76
2021/05/27 05:55:59;;;;;;;5.15;3.60;;;;;;;;;;5063419;28;20185;-76
2021/05/27 05:58:25;;;;;;;3.15;2.45;;;;;;;;;;5062695;28;20207;-76
2021/05/27 06:00:52;;;;;;;4.65;2.75;;;;;;;;;;5063851;28;20533;-77
2021/05/27 06:03:18;;;;;;;3.83;2.53;;;;;;;;;;5061639;28;20185;-76
2021/05/27 06:05:44;;;;;;;4.13;3.40;;;;;;;;;;5061924;28;20185;-77
2021/05/27 06:08:10;;;;;;;9.20;4.47;;;;;;;;;;5055412;28;20259;-76
2021/05/27 06:10:36;;;;;;;5.35;4.68;;;;;;;;;;5064728;28;20217;-76
2021/05/27 06:13:02;;;;;;;6.25;4.55;;;;;;;;;;5060072;28;20223;-76
2021/05/27 06:15:29;;;;;;;5.28;4.55;;;;;;;;;;5059455;28;20531;-76
2021/05/27 06:17:55;;;;;;;7.65;4.85;;;;;;;;;;5072764;28;20216;-76
2021/05/27 06:20:22;;;;;;;6.30;4.95;;;;;;;;;;5062172;28;20208;-76
2021/05/27 06:22:48;;;;;;;10.85;6.45;;;;;;;;;;5065123;28;20312;-77
2021/05/27 06:25:14;;;;;;;6.47;5.88;;;;;;;;;;5058258;28;20196;-77
2021/05/27 06:27:41;;;;;;;7.72;6.85;;;;;;;;;;5058357;28;20190;-77
2021/05/27 06:30:07;;;;;;;7.47;6.10;;;;;;;;;;5057738;28;20188;-77
2021/05/27 06:32:37;;;;;;;9.80;7.70;;;;;;;;;;5073411;28;20193;-76
2021/05/27 06:35:07;;;;;;;8.85;6.43;;;;;;;;;;5063421;28;20172;-77
2021/05/27 06:37:37;;;;;;;6.03;5.43;;;;;;;;;;5059183;28;20169;-77
2021/05/27 06:40:05;;;;;;;5.47;4.97;;;;;;;;;;5058359;28;20189;-77
2021/05/27 06:42:31;;;;;;;7.40;5.30;;;;;;;;;;5059434;28;20521;-76
2021/05/27 06:44:57;;;;;;;10.27;5.77;;;;;;;;;;5063213;28;20196;-77
2021/05/27 06:47:23;;;;;;;9.90;4.97;;;;;;;;;;5063710;28;20457;-76
2021/05/27 06:49:49;;;;;;;8.33;5.00;;;;;;;;;;5064471;28;20411;-76
2021/05/27 06:52:14;;;;;;;7.07;5.45;;;;;;;;;;5059243;28;20875;-76
2021/05/27 06:54:40;;;;;;;10.47;4.50;;;;;;;;;;5058088;28;20205;-77
2021/05/27 06:57:06;;;;;;;4.97;4.37;;;;;;;;;;5060861;28;20454;-77
2021/05/27 06:59:32;;;;;;;9.38;4.50;;;;;;;;;;5059312;28;20435;-77
2021/05/27 07:01:58;;;;;;;4.75;3.20;;;;;;;;;;5063765;28;20753;-77
2021/05/27 07:04:25;;;;;;;5.32;4.70;;;;;;;;;;5058995;28;20518;-78
2021/05/27 07:06:52;;;;;;;5.50;3.63;;;;;;;;;;5055432;28;20178;-77
2021/05/27 07:09:19;;;;;;;3.78;3.42;;;;;;;;;;5074804;28;20635;-77
2021/05/27 07:11:45;;;;;;;4.10;3.25;;;;;;;;;;5062701;28;20397;-76
2021/05/27 07:14:11;;;;;;;5.07;3.20;;;;;;;;;;5057769;28;20184;-77
2021/05/27 07:16:37;;;;;;;6.68;3.13;;;;;;;;;;5057635;28;20181;-77
2021/05/27 07:19:03;;;;;;;5.00;3.33;;;;;;;;;;5063226;28;20188;-77
2021/05/27 07:21:29;;;;;;;4.30;3.13;;;;;;;;;;5058874;28;20205;-77
2021/05/27 07:23:55;;;;;;;4.32;3.28;;;;;;;;;;5060068;28;20184;-77
2021/05/27 07:26:21;;;;;;;4.03;3.10;;;;;;;;;;5071658;28;20260;-77
2021/05/27 07:28:47;;;;;;;6.10;3.53;;;;;;;;;;5062476;28;20195;-78
2021/05/27 07:31:13;;;;;;;8.13;3.33;;;;;;;;;;5057824;28;20181;-77
2021/05/27 07:33:39;;;;;;;5.65;2.58;;;;;;;;;;5057534;28;20426;-77
2021/05/27 07:36:05;;;;;;;3.77;2.23;;;;;;;;;;5061080;28;20185;-77
2021/05/27 07:38:32;;;;;;;2.97;2.20;;;;;;;;;;5059458;28;20522;-77
2021/05/27 07:40:58;;;;;;;1.90;1.75;;;;;;;;;;5057131;28;20197;-77
2021/05/27 07:43:24;;;;;;;2.95;1.85;;;;;;;;;;5057921;28;20194;-77
2021/05/27 07:45:50;;;;;;;3.75;1.88;;;;;;;;;;5057197;28;20205;-78
2021/05/27 07:48:16;;;;;;;4.35;2.58;;;;;;;;;;5059883;28;20695;-78
2021/05/27 07:50:43;;;;;;;3.10;1.87;;;;;;;;;;5060486;28;20186;-77
2021/05/27 07:53:11;;;;;;;2.10;1.90;;;;;;;;;;5072783;28;20442;-77
2021/05/27 07:55:39;;;;;;;4.40;2.55;;;;;;;;;;5061552;28;20180;-77
2021/05/27 07:58:05;;;;;;;2.33;2.15;;;;;;;;;;5058656;28;20244;-77
2021/05/27 08:00:31;;;;;;;4.63;2.60;;;;;;;;;;5058752;28;20700;-77
2021/05/27 08:02:57;;;;;;;3.13;2.25;;;;;;;;;;5062536;28;20185;-77
2021/05/27 08:05:23;;;;;;;2.43;1.90;;;;;;;;;;5062725;28;20185;-77
2021/05/27 08:07:49;;;;;;;4.30;2.00;;;;;;;;;;5061977;28;20405;-77
2021/05/27 08:10:16;;;;;;;2.80;2.20;;;;;;;;;;5055326;28;20234;-78
2021/05/27 08:12:42;;;;;;;3.67;2.17;;;;;;;;;;5057557;28;20182;-77
2021/05/27 08:15:09;;;;;;;5.30;1.88;;;;;;;;;;5061053;28;20191;-79
2021/05/27 08:17:35;;;;;;;4.70;1.90;;;;;;;;;;5071272;28;20189;-78
2021/05/27 08:20:01;;;;;;;2.08;1.90;;;;;;;;;;5062823;28;20751;-77
2021/05/27 08:22:27;;;;;;;6.03;1.90;;;;;;;;;;5058226;28;20172;-77
2021/05/27 08:24:57;;;;;;;1.83;1.52;;;;;;;;;;5057988;28;20280;-77
2021/05/27 08:27:23;;;;;;;2.95;2.25;;;;;;;;;;5058234;28;20640;-78
2021/05/27 08:29:49;;;;;;;1.83;1.73;;;;;;;;;;5064636;28;20188;-77
2021/05/27 08:32:15;;;;;;;4.35;2.08;;;;;;;;;;5060732;28;20181;-77
2021/05/27 08:34:41;;;;;;;1.90;1.67;;;;;;;;;;5065731;28;20177;-78
2021/05/27 08:37:07;;;;;;;3.58;2.17;;;;;;;;;;5060297;28;20200;-77
2021/05/27 08:39:34;;;;;;;2.72;2.42;;;;;;;;;;5061749;28;20190;-77
2021/05/27 08:42:00;;;;;;;3.03;1.75;;;;;;;;;;5065724;28;20212;-77
2021/05/27 08:44:26;;;;;;;2.35;1.63;;;;;;;;;;5066004;28;20256;-77
2021/05/27 08:46:52;;;;;;;3.00;1.90;;;;;;;;;;5076223;28;20202;-78
2021/05/27 08:49:18;;;;;;;6.97;2.15;;;;;;;;;;5060793;28;20684;-78
2021/05/27 08:51:45;;;;;;;6.53;2.30;;;;;;;;;;5060359;28;20465;-78
2021/05/27 08:54:11;;;;;;;5.13;2.55;;;;;;;;;;5063419;28;20202;-78
2021/05/27 08:56:37;;;;;;;6.00;2.40;;;;;;;;;;5061994;28;20189;-77
2021/05/27 08:59:04;;;;;;;1.98;1.55;;;;;;;;;;5060865;28;20291;-77
2021/05/27 09:01:30;;;;;;;1.80;1.50;;;;;;;;;;5064660;28;20201;-77
2021/05/27 09:03:56;;;;;;;1.60;1.50;;;;;;;;;;5065601;28;20188;-78
2021/05/27 09:06:23;;;;;;;2.50;1.48;;;;;;;;;;5062347;28;20442;-78
2021/05/27 09:08:49;;;;;;;1.45;1.35;;;;;;;;;;5063176;28;20668;-79
2021/05/27 09:11:17;;;;;;;2.63;1.70;;;;;;;;;;5058513;28;20233;-78
2021/05/27 09:13:53;;;;;;;2.15;1.73;;;;;;;;;;5060655;28;20169;-78
2021/05/27 09:16:20;;;;;;;2.83;1.77;;;;;;;;;;5075240;28;20331;-78
2021/05/27 09:18:46;;;;;;;3.50;1.70;;;;;;;;;;5060883;28;20189;-77
2021/05/27 09:21:13;;;;;;;3.47;1.45;;;;;;;;;;5079477;28;20212;-77
2021/05/27 09:23:49;;;;;;;2.38;1.90;;;;;;;;;;5064955;28;20604;-78
2021/05/27 09:26:16;;;;;;;4.00;1.90;;;;;;;;;;5074629;28;20199;-77
2021/05/27 09:28:43;;;;;;;2.28;1.60;;;;;;;;;;5060296;28;20176;-78
2021/05/27 09:31:10;;;;;;;2.50;2.05;;;;;;;;;;5059538;28;20192;-77
2021/05/27 09:33:40;;;;;;;3.65;2.05;;;;;;;;;;5059576;28;20241;-77
2021/05/27 09:36:14;;;;;;;2.70;1.83;;;;;;;;;;5059608;28;20181;-78
2021/05/27 09:38:41;;;;;;;3.58;1.95;;;;;;;;;;5074174;28;20200;-78
2021/05/27 09:41:26;;;;;;;2.92;2.63;;;;;;;;;;5064218;28;20208;-78
2021/05/27 09:43:56;;;;;;;3.40;2.78;;;;;;;;;;5073824;28;20260;-78
2021/05/27 09:46:23;;;;;;;2.78;2.10;;;;;;;;;;5063001;28;20189;-77
2021/05/27 09:49:04;;;;;;;5.68;2.63;;;;;;;;;;5057169;28;20178;-78
2021/05/27 09:51:30;;;;;;;5.53;1.60;;;;;;;;;;5052815;28;20288;-78
2021/05/27 09:53:57;;;;;;;1.73;1.40;;;;;;;;;;5063989;28;20216;-78
2021/05/27 09:56:33;;;;;;;2.58;1.30;;;;;;;;;;5079284;28;20447;-78
2021/05/27 09:58:59;;;;;;;3.35;1.58;;;;;;;;;;5060157;28;20177;-77
2021/05/27 10:01:25;;;;;;;3.75;2.20;;;;;;;;;;5064876;28;20197;-78
2021/05/27 10:03:51;;;;;;;1.83;1.73;;;;;;;;;;5058984;28;20182;-78
2021/05/27 10:06:18;;;;;;;1.70;1.60;;;;;;;;;;5057958;28;20467;-78
2021/05/27 10:08:48;;;;;;;2.28;1.60;;;;;;;;;;5058232;28;20170;-78
2021/05/27 10:11:14;;;;;;;4.28;1.52;;;;;;;;;;5072983;28;20623;-78
2021/05/27 10:13:41;;;;;;;4.53;1.60;;;;;;;;;;5059871;28;20211;-77
2021/05/27 10:16:10;;;;;;;1.70;1.60;;;;;;;;;;5059853;28;20177;-78
2021/05/27 10:18:36;;;;;;;2.30;1.65;;;;;;;;;;5063961;28;20185;-78
2021/05/27 10:21:06;;;;;;;3.75;1.30;;;;;;;;;;5062713;28;20262;-78
2021/05/27 10:23:32;;;;;;;3.88;1.20;;;;;;;;;;5059832;28;20180;-78
2021/05/27 10:25:58;;;;;;;3.30;1.30;;;;;;;;;;5074503;28;20526;-78
2021/05/27 10:28:24;;;;;;;1.20;1.10;;;;;;;;;;5062856;28;20550;-78
2021/05/27 10:30:51;;;;;;;2.15;1.25;;;;;;;;;;5059620;28;20235;-78
2021/05/27 10:33:21;;;;;;;2.83;1.10;;;;;;;;;;5065861;28;20628;-77
2021/05/27 10:35:50;;;;;;;1.27;1.17;;;;;;;;;;5061619;28;20188;-78
2021/05/27 10:38:16;;;;;;;1.65;0.95;;;;;;;;;;5073345;28;20232;-78
2021/05/27 10:40:44;;;;;;;1.10;1.00;;;;;;;;;;5063789;28;20314;-77
2021/05/27 10:43:11;;;;;;;2.40;1.67;;;;;;;;;;5077328;28;20262;-78
2021/05/27 10:45:56;;;;;;;2.27;1.60;;;;;;;;;;5062888;28;20948;-78
2021/05/27 10:48:24;;;;;;;2.70;1.37;;;;;;;;;;5058817;28;20433;-78
2021/05/27 10:50:51;;;;;;;2.27;0.90;;;;;;;;;;5061307;28;20446;-77
2021/05/27 10:53:40;;;;;;;2.13;1.17;;;;;;;;;;5072575;28;20431;-78
2021/05/27 10:56:15;;;;;;;2.53;1.10;;;;;;;;;;5061115;28;20446;-79
2021/05/27 10:58:47;;;;;;;2.43;1.30;;;;;;;;;;5057471;28;20440;-76
2021/05/27 11:01:14;;;;;;;2.57;1.40;;;;;;;;;;5057501;28;20470;-76
2021/05/27 11:03:41;;;;;;;1.93;1.20;;;;;;;;;;5062297;28;20444;-76
2021/05/27 11:06:27;;;;;;;3.63;1.40;;;;;;;;;;5058749;28;20435;-75
2021/05/27 11:09:05;;;;;;;2.80;1.00;;;;;;;;;;5062681;28;20409;-77
2021/05/27 11:11:36;;;;;;;1.30;1.20;;;;;;;;;;5077018;28;20456;-77
2021/05/27 11:14:21;;;;;;;1.80;1.40;;;;;;;;;;5061518;28;20976;-77
2021/05/27 11:17:11;;;;;;;2.20;1.50;;;;;;;;;;5068164;28;20386;-77
2021/05/27 11:19:49;;;;;;;2.33;1.30;;;;;;;;;;5059858;28;20910;-77
2021/05/27 11:25:12;;;;;;;2.53;1.30;;;;;;;;;;5056589;28;20480;-77
2021/05/27 11:27:45;;;;;;;1.03;0.90;;;;;;;;;;5055895;28;20442;-76
2021/05/27 11:30:17;;;;;;;1.50;1.40;;;;;;;;;;5074923;28;20414;-77
2021/05/27 11:32:44;;;;;;;1.37;1.27;;;;;;;;;;5058548;28;20445;-77
2021/05/27 11:35:10;;;;;;;2.78;1.67;;;;;;;;;;5062880;28;20895;-77
2021/05/27 11:37:37;;;;;;;2.10;1.00;;;;;;;;;;5062122;28;20256;-78
2021/05/27 11:40:04;;;;;;;5.43;1.80;;;;;;;;;;5061307;28;20402;-77
2021/05/27 11:42:30;;;;;;;1.90;1.37;;;;;;;;;;5061086;28;20447;-77
2021/05/27 11:44:57;;;;;;;2.73;1.50;;;;;;;;;;5058767;28;20448;-76
2021/05/27 11:47:23;;;;;;;2.60;1.10;;;;;;;;;;5063412;28;20496;-77
2021/05/27 11:50:07;;;;;;;1.73;1.20;;;;;;;;;;5057520;28;20416;-76
2021/05/27 11:52:34;;;;;;;6.93;2.10;;;;;;;;;;5062606;28;20434;-76
2021/05/27 11:55:00;;;;;;;1.20;1.10;;;;;;;;;;5077040;28;20883;-77
2021/05/27 11:57:45;;;;;;;1.27;1.10;;;;;;;;;;5074532;28;20451;-76
2021/05/27 12:00:13;;;;;;;1.97;1.30;;;;;;;;;;5077167;28;20512;-76
2021/05/27 12:02:42;;;;;;;1.83;1.43;;;;;;;;;;5077539;28;20441;-76
2021/05/27 12:05:27;;;;;;;3.00;1.13;;;;;;;;;;5064893;28;20490;-76
2021/05/27 12:08:03;;;;;;;1.60;1.07;;;;;;;;;;5054708;28;20422;-76
2021/05/27 12:10:39;;;;;;;2.40;1.27;;;;;;;;;;5066418;28;20486;-76
2021/05/27 12:13:15;;;;;;;1.63;1.40;;;;;;;;;;5060905;28;20861;-75
2021/05/27 12:15:42;;;;;;;1.40;1.30;;;;;;;;;;5065536;28;20434;-77
2021/05/27 12:18:12;;;;;;;1.43;1.13;;;;;;;;;;5060093;28;20441;-76
2021/05/27 12:20:39;;;;;;;3.77;1.80;;;;;;;;;;5063238;28;20475;-75
2021/05/27 12:23:15;;;;;;;1.77;1.10;;;;;;;;;;5066946;28;20419;-76
2021/05/27 12:25:43;;;;;;;1.47;1.20;;;;;;;;;;5069119;28;20430;-76
2021/05/27 12:28:14;;;;;;;3.43;1.80;;;;;;;;;;5075319;28;20413;-76
2021/05/27 12:30:43;;;;;;;2.03;1.70;;;;;;;;;;5061390;28;20413;-76
2021/05/27 12:33:14;;;;;;;1.60;1.30;;;;;;;;;;5079339;28;20414;-75
2021/05/27 12:35:40;;;;;;;2.42;1.42;;;;;;;;;;5080947;28;20405;-76
2021/05/27 12:38:26;;;;;;;1.60;1.50;;;;;;;;;;5063812;28;20182;-76
2021/05/27 12:40:58;;;;;;;1.90;1.30;;;;;;;;;;5064247;28;20429;-76
2021/05/27 12:43:32;;;;;;;1.30;1.20;;;;;;;;;;5061381;28;20411;-76
2021/05/27 12:45:58;;;;;;;2.00;1.37;;;;;;;;;;5063270;28;20420;-75
2021/05/27 12:48:25;;;;;;;1.93;1.57;;;;;;;;;;5061549;28;20427;-75
2021/05/27 12:50:51;;;;;;;2.63;1.53;;;;;;;;;;5064677;28;20847;-75
2021/05/27 12:53:31;;;;;;;3.03;1.80;;;;;;;;;;5064289;28;20435;-78
2021/05/27 12:55:58;;;;;;;2.80;1.33;;;;;;;;;;5061503;28;20514;-77
2021/05/27 12:58:25;;;;;;;3.53;1.53;;;;;;;;;;5060588;28;20400;-77
2021/05/27 13:00:51;;;;;;;1.70;1.33;;;;;;;;;;5064845;28;20995;-76
2021/05/27 13:03:17;;;;;;;1.53;1.37;;;;;;;;;;5062490;28;20910;-76
2021/05/27 13:05:43;;;;;;;2.13;1.37;;;;;;;;;;5062345;28;20435;-77
2021/05/27 13:08:10;;;;;;;2.33;1.30;;;;;;;;;;5056958;28;20419;-76
2021/05/27 13:10:38;;;;;;;2.47;1.20;;;;;;;;;;5057407;28;20455;-76
2021/05/27 13:13:05;;;;;;;3.13;1.47;;;;;;;;;;5059407;28;20447;-77
2021/05/27 13:15:41;;;;;;;3.00;1.30;;;;;;;;;;5059139;28;20448;-77
2021/05/27 13:18:08;;;;;;;1.27;1.00;;;;;;;;;;5065024;28;20445;-77
2021/05/27 13:20:58;;;;;;;2.07;1.30;;;;;;;;;;5054232;28;20495;-77
2021/05/27 13:23:29;;;;;;;1.77;1.30;;;;;;;;;;5069725;28;20431;-78
2021/05/27 13:26:16;;;;;;;1.33;0.97;;;;;;;;;;5061679;28;20408;-78
2021/05/27 13:28:42;;;;;;;2.23;1.00;;;;;;;;;;5059393;28;20837;-78
2021/05/27 13:31:09;;;;;;;1.97;1.47;;;;;;;;;;5059073;28;20422;-78
2021/05/27 13:33:36;;;;;;;2.57;1.30;;;;;;;;;;5060077;28;20444;-77
2021/05/27 13:36:03;;;;;;;2.17;1.10;;;;;;;;;;5063114;28;20802;-77
2021/05/27 13:38:30;;;;;;;3.17;1.20;;;;;;;;;;5068569;28;20464;-77
2021/05/27 13:40:57;;;;;;;1.60;1.50;;;;;;;;;;5065162;28;20463;-77
2021/05/27 13:43:28;;;;;;;2.85;1.23;;;;;;;;;;5063053;28;20420;-77
2021/05/27 13:45:55;;;;;;;1.48;1.08;;;;;;;;;;5057945;28;20184;-76
2021/05/27 13:48:21;;;;;;;2.08;1.35;;;;;;;;;;5058728;28;20185;-77
2021/05/27 13:50:47;;;;;;;1.87;1.10;;;;;;;;;;5062570;28;20212;-76
2021/05/27 13:53:13;;;;;;;1.52;1.42;;;;;;;;;;5073863;28;20418;-77
2021/05/27 13:55:51;;;;;;;1.50;1.40;;;;;;;;;;5064965;28;20239;-76
2021/05/27 13:58:20;;;;;;;1.88;1.00;;;;;;;;;;5060357;28;20745;-78
2021/05/27 14:00:46;;;;;;;1.60;1.50;;;;;;;;;;5064012;28;20205;-82
2021/05/27 14:03:12;;;;;;;2.13;1.30;;;;;;;;;;5059002;28;20185;-81
2021/05/27 14:05:38;;;;;;;4.17;1.43;;;;;;;;;;5068048;28;20406;-82
2021/05/27 14:08:05;;;;;;;2.80;1.37;;;;;;;;;;5071199;28;20390;-81
2021/05/27 14:10:31;;;;;;;1.33;1.23;;;;;;;;;;5058381;28;20451;-82
2021/05/27 14:12:57;;;;;;;1.30;1.20;;;;;;;;;;5059318;28;20462;-82
2021/05/27 14:15:23;;;;;;;2.77;1.40;;;;;;;;;;5064290;28;20438;-81
2021/05/27 14:17:49;;;;;;;1.77;1.40;;;;;;;;;;5064032;28;20451;-82
2021/05/27 14:20:15;;;;;;;1.83;1.20;;;;;;;;;;5058734;28;20474;-82
2021/05/27 14:22:42;;;;;;;1.30;1.20;;;;;;;;;;5063582;28;20390;-82
2021/05/27 14:25:08;;;;;;;1.57;1.10;;;;;;;;;;5059853;28;20781;-83
2021/05/27 14:27:34;;;;;;;1.53;1.20;;;;;;;;;;5059284;28;20425;-82
2021/05/27 14:30:01;;;;;;;2.63;1.20;;;;;;;;;;5063613;28;20415;-82
2021/05/27 14:32:27;;;;;;;1.13;1.00;;;;;;;;;;5058324;28;20414;-82
2021/05/27 14:34:53;;;;;;;2.70;1.60;;;;;;;;;;5074268;28;20412;-82
2021/05/27 14:37:19;;;;;;;3.40;1.40;;;;;;;;;;5073216;28;20406;-83
2021/05/27 14:39:45;;;;;;;1.23;1.13;;;;;;;;;;5065296;28;20414;-83
2021/05/27 14:42:11;;;;;;;1.20;1.00;;;;;;;;;;5076459;28;20452;-82
2021/05/27 14:44:37;;;;;;;3.70;1.47;;;;;;;;;;5060403;28;20434;-81
2021/05/27 14:47:03;;;;;;;1.27;1.05;;;;;;;;;;5063018;28;20394;-83
2021/05/27 14:49:29;;;;;;;3.38;1.48;;;;;;;;;;5059527;28;20169;-83
2021/05/27 14:51:55;;;;;;;1.10;1.00;;;;;;;;;;5059085;28;20296;-83
2021/05/27 14:54:21;;;;;;;1.63;1.20;;;;;;;;;;5056376;28;20444;-83